Time;durP1;ratioP1;P1;durP2;ratioP2;P2;SDS_P1;SDS_P2;PMS_P1;PMS_P2;Temp;Humidity;BMP_temperature;BMP_pressure;BME280_temperature;BME280_humidity;BME280_pressure;Samples;Min_cycle;Max_cycle;Signal;HPM_P1;HPM_P2
2023/07/21 00:02:14;;;;;;;0.70;0.70;;;;;;;21.71;59.08;94992.91;4349996;32;20284;-62
2023/07/21 00:04:40;;;;;;;1.20;1.20;;;;;;;21.61;59.63;94997.06;4349061;32;20215;-62
2023/07/21 00:07:05;;;;;;;0.57;0.57;;;;;;;21.71;58.73;94993.69;4360152;32;20227;-62
2023/07/21 00:09:31;;;;;;;1.60;0.90;;;;;;;21.64;59.37;94988.19;4335112;32;20243;-62
2023/07/21 00:11:56;;;;;;;1.40;0.97;;;;;;;21.72;59.26;94992.53;4345294;32;20206;-62
2023/07/21 00:14:24;;;;;;;1.07;1.07;;;;;;;21.69;58.83;94974.38;4338251;32;20185;-62
2023/07/21 00:16:53;;;;;;;0.43;0.43;;;;;;;21.74;58.27;94978.66;4336717;32;20230;-62
2023/07/21 00:19:18;;;;;;;0.73;0.73;;;;;;;21.88;58.75;94976.84;4351684;32;20240;-63
2023/07/21 00:21:43;;;;;;;0.77;0.77;;;;;;;21.92;59.00;94983.06;4360880;32;22894;-62
2023/07/21 00:24:11;;;;;;;0.87;0.87;;;;;;;21.94;59.72;94975.34;4342366;32;20204;-62
2023/07/21 00:26:36;;;;;;;1.40;1.37;;;;;;;21.96;60.25;94980.38;4342301;32;20237;-62
2023/07/21 00:29:01;;;;;;;0.77;0.77;;;;;;;21.89;60.71;94983.78;4340394;32;20208;-62
2023/07/21 00:31:27;;;;;;;0.90;0.83;;;;;;;21.69;61.46;94968.97;4358514;32;20193;-62
2023/07/21 00:33:54;;;;;;;1.00;1.00;;;;;;;21.76;62.18;94979.84;4349173;32;20181;-62
2023/07/21 00:36:20;;;;;;;0.77;0.77;;;;;;;21.69;62.71;94977.06;4351191;32;20228;-62
2023/07/21 00:38:47;;;;;;;1.53;1.43;;;;;;;21.46;63.31;94987.25;4360126;32;20238;-62
2023/07/21 00:41:13;;;;;;;1.13;1.13;;;;;;;21.54;63.51;94986.19;4359150;32;20208;-62
2023/07/21 00:43:38;;;;;;;0.80;0.80;;;;;;;21.56;63.64;94992.78;4360733;32;20189;-62
2023/07/21 00:46:04;;;;;;;1.73;1.63;;;;;;;21.40;64.32;94977.97;4339587;32;20246;-62
2023/07/21 00:48:29;;;;;;;1.10;1.10;;;;;;;21.49;64.44;94978.41;4353504;32;20189;-62
2023/07/21 00:50:55;;;;;;;0.50;0.50;;;;;;;21.56;64.49;94983.91;4357455;32;20207;-62
2023/07/21 00:53:20;;;;;;;1.00;1.00;;;;;;;21.40;64.58;94978.75;4349093;32;20189;-63
2023/07/21 00:55:47;;;;;;;1.50;1.00;;;;;;;21.40;64.96;94980.66;4339035;32;20234;-62
2023/07/21 00:58:14;;;;;;;0.60;0.60;;;;;;;21.14;65.86;94966.09;4360061;32;20189;-62
2023/07/21 01:00:40;;;;;;;1.63;0.83;;;;;;;21.03;66.24;94965.19;4360965;32;20196;-62
2023/07/21 01:03:08;;;;;;;1.17;1.17;;;;;;;20.96;66.47;94962.44;4365473;32;20189;-62
2023/07/21 01:05:36;;;;;;;1.23;1.13;;;;;;;20.86;67.25;94971.94;4352352;32;20191;-62
2023/07/21 01:08:06;;;;;;;0.73;0.73;;;;;;;20.91;67.05;94970.84;4360572;32;20247;-62
2023/07/21 01:10:33;;;;;;;0.80;0.80;;;;;;;21.04;66.78;94964.03;4358939;32;20192;-62
2023/07/21 01:13:00;;;;;;;0.90;0.90;;;;;;;21.09;66.54;94960.25;4358714;32;20208;-62
2023/07/21 01:15:27;;;;;;;1.03;1.03;;;;;;;21.20;66.58;94959.22;4334259;32;20225;-61
2023/07/21 01:17:54;;;;;;;1.23;1.23;;;;;;;21.24;66.34;94960.06;4356084;32;20189;-62
2023/07/21 01:20:23;;;;;;;0.30;0.30;;;;;;;21.09;66.86;94957.56;4349502;32;20208;-62
2023/07/21 01:23:11;;;;;;;1.10;1.10;;;;;;;21.10;66.73;94943.69;4349774;32;20208;-62
2023/07/21 01:25:38;;;;;;;0.80;0.80;;;;;;;21.00;67.50;94947.03;4353646;32;20204;-62
2023/07/21 01:28:06;;;;;;;4.00;1.30;;;;;;;20.86;68.03;94944.19;4341746;32;20205;-62
2023/07/21 01:30:32;;;;;;;0.70;0.70;;;;;;;21.12;67.39;94940.63;4338589;32;20239;-62
2023/07/21 01:32:57;;;;;;;1.47;1.37;;;;;;;21.17;67.56;94934.91;4340989;32;20189;-62
2023/07/21 01:35:28;;;;;;;0.77;0.77;;;;;;;21.00;67.84;94933.56;4361736;32;20252;-62
2023/07/21 01:37:55;;;;;;;0.97;0.97;;;;;;;21.12;67.60;94932.53;4347101;32;20189;-63
2023/07/21 01:40:21;;;;;;;0.80;0.80;;;;;;;21.03;68.09;94934.75;4365903;32;20215;-62
2023/07/21 01:42:47;;;;;;;0.70;0.70;;;;;;;21.19;67.70;94932.63;4346876;32;20244;-62
2023/07/21 01:45:13;;;;;;;1.00;1.00;;;;;;;21.06;68.05;94932.09;4354852;32;20255;-62
2023/07/21 01:47:38;;;;;;;0.93;0.93;;;;;;;21.26;67.79;94936.19;4349627;32;20249;-62
2023/07/21 01:50:09;;;;;;;0.77;0.77;;;;;;;21.19;67.88;94930.69;4365948;32;20189;-62
2023/07/21 01:52:37;;;;;;;0.67;0.67;;;;;;;21.11;68.32;94923.66;4349310;32;20228;-62
2023/07/21 01:55:41;;;;;;;1.10;1.10;;;;;;;21.14;68.16;94928.31;4347990;32;20177;-62
2023/07/21 01:58:08;;;;;;;1.00;1.00;;;;;;;21.10;68.30;94924.81;4352879;32;20193;-62
2023/07/21 02:00:37;;;;;;;0.80;0.80;;;;;;;21.08;68.36;94929.78;4349841;32;20246;-62
2023/07/21 02:03:04;;;;;;;0.83;0.77;;;;;;;21.19;68.07;94929.91;4359353;32;20193;-62
2023/07/21 02:05:29;;;;;;;0.50;0.50;;;;;;;21.20;68.11;94926.06;4336861;32;20239;-62
2023/07/21 02:07:55;;;;;;;0.90;0.90;;;;;;;21.23;67.85;94918.03;4333373;32;20208;-62
2023/07/21 02:10:20;;;;;;;0.50;0.50;;;;;;;21.03;68.69;94916.63;4356290;32;20200;-61
2023/07/21 02:12:46;;;;;;;0.83;0.83;;;;;;;21.13;68.46;94909.81;4355549;32;20229;-62
2023/07/21 02:15:11;;;;;;;1.93;1.30;;;;;;;21.15;68.40;94915.63;4353288;32;20196;-62
2023/07/21 02:17:38;;;;;;;0.70;0.70;;;;;;;21.17;68.47;94914.09;4344102;32;20216;-63
2023/07/21 02:20:09;;;;;;;0.80;0.80;;;;;;;21.09;68.65;94922.47;4349420;32;20196;-62
2023/07/21 02:22:39;;;;;;;1.03;1.00;;;;;;;21.19;68.62;94916.44;4357152;32;20260;-62
2023/07/21 02:25:06;;;;;;;0.73;0.73;;;;;;;21.13;68.70;94910.59;4364147;32;20238;-62
2023/07/21 02:27:33;;;;;;;1.03;1.03;;;;;;;21.14;68.65;94906.75;4349695;32;20216;-62
2023/07/21 02:29:59;;;;;;;0.70;0.70;;;;;;;21.16;68.85;94906.38;4363678;32;20219;-62
2023/07/21 02:32:25;;;;;;;1.80;0.87;;;;;;;21.18;68.99;94907.56;4367296;32;20244;-62
2023/07/21 02:34:50;;;;;;;0.60;0.60;;;;;;;20.94;69.60;94899.97;4355930;32;20207;-62
2023/07/21 02:37:16;;;;;;;0.47;0.47;;;;;;;20.98;69.16;94903.50;4350143;32;20249;-62
2023/07/21 02:39:41;;;;;;;0.70;0.70;;;;;;;20.56;70.30;94904.56;4347711;32;20249;-62
2023/07/21 02:42:07;;;;;;;4.43;0.77;;;;;;;20.51;70.60;94901.41;4353993;32;20181;-62
2023/07/21 02:44:32;;;;;;;0.90;0.80;;;;;;;20.75;70.51;94900.16;4363373;32;20240;-62
2023/07/21 02:46:58;;;;;;;1.20;1.10;;;;;;;20.63;70.36;94900.38;4350623;32;20212;-61
2023/07/21 02:49:23;;;;;;;0.93;0.93;;;;;;;20.43;71.15;94900.53;4345633;32;20201;-62
2023/07/21 02:51:49;;;;;;;0.53;0.53;;;;;;;20.68;70.73;94898.16;4347041;32;20202;-62
2023/07/21 02:54:14;;;;;;;1.17;1.17;;;;;;;20.72;70.17;94890.09;4331294;32;20291;-62
2023/07/21 02:56:39;;;;;;;0.73;0.73;;;;;;;20.65;70.46;94890.78;4337389;32;20207;-62
2023/07/21 02:59:05;;;;;;;0.73;0.73;;;;;;;20.69;70.29;94890.84;4351044;32;20240;-62
2023/07/21 03:01:31;;;;;;;0.90;0.90;;;;;;;20.86;70.34;94882.16;4332559;32;20204;-62
2023/07/21 03:03:56;;;;;;;0.83;0.83;;;;;;;20.44;71.09;94880.53;4348732;32;20189;-62
2023/07/21 03:06:22;;;;;;;0.80;0.80;;;;;;;20.14;72.28;94887.84;4342674;32;20208;-62
2023/07/21 03:08:48;;;;;;;3.20;0.97;;;;;;;20.37;71.69;94882.38;4348498;32;20250;-62
2023/07/21 03:11:14;;;;;;;1.17;1.17;;;;;;;20.42;71.81;94882.81;4341219;32;20207;-62
2023/07/21 03:13:44;;;;;;;3.20;1.43;;;;;;;20.39;71.55;94886.25;4340797;32;20204;-62
2023/07/21 03:16:12;;;;;;;1.70;1.13;;;;;;;20.37;71.75;94882.38;4355554;32;20215;-63
2023/07/21 03:18:37;;;;;;;4.10;1.00;;;;;;;20.33;71.91;94886.91;4346783;32;20256;-62
2023/07/21 03:21:03;;;;;;;0.80;0.80;;;;;;;20.21;72.48;94896.00;4341869;32;20200;-62
2023/07/21 03:23:28;;;;;;;1.07;1.07;;;;;;;20.20;72.65;94899.81;4343690;32;20196;-62
2023/07/21 03:25:54;;;;;;;1.40;1.30;;;;;;;20.24;72.30;94889.88;4354969;32;20193;-62
2023/07/21 03:28:21;;;;;;;1.10;1.10;;;;;;;20.30;72.34;94893.81;4355511;32;20197;-62
2023/07/21 03:30:56;;;;;;;1.67;1.43;;;;;;;20.15;72.74;94890.16;4358024;32;20299;-62
2023/07/21 03:33:21;;;;;;;1.17;1.17;;;;;;;20.14;73.03;94890.53;4343624;32;20192;-63
2023/07/21 03:35:46;;;;;;;0.80;0.80;;;;;;;20.00;73.73;94890.31;4326162;32;20193;-62
2023/07/21 03:38:12;;;;;;;0.37;0.37;;;;;;;20.21;72.87;94896.00;4342195;32;20209;-62
2023/07/21 03:40:37;;;;;;;0.87;0.87;;;;;;;20.27;72.66;94894.53;4352310;32;20202;-62
2023/07/21 03:43:02;;;;;;;0.50;0.50;;;;;;;20.47;72.42;94890.59;4335089;32;20227;-62
2023/07/21 03:45:28;;;;;;;0.97;0.97;;;;;;;20.37;72.16;94885.84;4350534;32;20188;-62
2023/07/21 03:47:53;;;;;;;1.23;1.23;;;;;;;20.45;72.23;94890.19;4347532;32;20181;-62
2023/07/21 03:50:18;;;;;;;1.70;1.53;;;;;;;20.48;71.91;94894.84;4346282;32;20253;-62
2023/07/21 03:52:44;;;;;;;2.50;1.07;;;;;;;20.52;71.76;94892.97;4350450;32;20208;-62
2023/07/21 03:55:09;;;;;;;1.33;1.23;;;;;;;20.51;71.58;94890.62;4348903;32;20193;-62
2023/07/21 03:57:35;;;;;;;0.77;0.77;;;;;;;20.47;71.89;94890.59;4333472;32;20240;-62
2023/07/21 04:00:00;;;;;;;1.03;1.03;;;;;;;20.52;71.90;94887.56;4339936;32;20240;-62
2023/07/21 04:02:26;;;;;;;0.80;0.80;;;;;;;20.33;72.05;94885.00;4344884;32;20198;-62
2023/07/21 04:04:53;;;;;;;0.90;0.83;;;;;;;20.49;71.55;94890.22;4341083;32;20239;-62
2023/07/21 04:07:18;;;;;;;0.80;0.80;;;;;;;20.80;70.90;94886.34;4346495;32;20225;-62
2023/07/21 04:09:43;;;;;;;0.77;0.77;;;;;;;20.76;70.54;94893.63;4346733;32;20197;-62
2023/07/21 04:12:09;;;;;;;1.30;1.30;;;;;;;20.50;71.21;94883.69;4339506;32;20227;-62
2023/07/21 04:14:34;;;;;;;0.80;0.80;;;;;;;20.51;71.65;94869.06;4350901;32;20203;-62
2023/07/21 04:16:59;;;;;;;1.57;1.47;;;;;;;20.53;71.71;94872.19;4347361;32;20235;-62
2023/07/21 04:19:27;;;;;;;2.80;1.70;;;;;;;20.63;71.42;94871.50;4348179;32;20266;-62
2023/07/21 04:21:53;;;;;;;1.07;1.07;;;;;;;20.78;71.14;94875.16;4355363;32;20262;-62
2023/07/21 04:24:19;;;;;;;0.83;0.53;;;;;;;20.79;70.80;94877.47;4353268;32;20219;-62
2023/07/21 04:26:44;;;;;;;2.07;1.13;;;;;;;20.85;70.79;94877.91;4347139;32;20280;-62
2023/07/21 04:29:10;;;;;;;0.70;0.70;;;;;;;20.91;70.95;94884.53;4333041;32;20193;-62
2023/07/21 04:31:35;;;;;;;1.33;1.23;;;;;;;20.95;70.83;94893.44;4353727;32;20235;-62
2023/07/21 04:34:00;;;;;;;0.80;0.80;;;;;;;20.96;70.33;94895.00;4350000;32;20185;-62
2023/07/21 04:36:27;;;;;;;0.83;0.83;;;;;;;20.79;71.06;94879.37;4360000;32;20181;-62
2023/07/21 04:38:52;;;;;;;1.37;1.27;;;;;;;20.98;70.60;94881.91;4347016;32;20335;-63
2023/07/21 04:41:18;;;;;;;0.83;0.83;;;;;;;20.69;71.85;94885.44;4344403;32;20184;-62
2023/07/21 04:43:46;;;;;;;0.77;0.77;;;;;;;21.02;71.19;94873.84;4360954;32;20237;-61
2023/07/21 04:46:12;;;;;;;1.57;1.47;;;;;;;20.96;70.85;94878.81;4344984;32;20189;-62
2023/07/21 04:48:37;;;;;;;1.27;1.20;;;;;;;20.91;70.88;94879.91;4347371;32;20211;-62
2023/07/21 04:51:03;;;;;;;1.07;1.00;;;;;;;21.05;70.69;94892.75;4355719;32;20204;-62
2023/07/21 04:53:29;;;;;;;0.77;0.77;;;;;;;20.98;70.87;94889.25;4345554;32;20261;-62
2023/07/21 04:55:56;;;;;;;5.57;1.13;;;;;;;21.11;70.72;94882.41;4362147;32;20180;-62
2023/07/21 04:58:21;;;;;;;1.20;1.03;;;;;;;20.78;71.54;94875.94;4360877;32;20212;-63
2023/07/21 05:00:46;;;;;;;15.73;1.63;;;;;;;20.73;72.10;94875.47;4349423;32;20202;-62
2023/07/21 05:03:12;;;;;;;2.20;1.00;;;;;;;20.93;71.52;94887.66;4345602;32;20197;-62
2023/07/21 05:05:38;;;;;;;0.53;0.53;;;;;;;21.00;71.32;94884.22;4348819;32;20241;-61
2023/07/21 05:08:04;;;;;;;0.43;0.43;;;;;;;20.88;71.61;94883.34;4344392;32;20235;-62
2023/07/21 05:10:30;;;;;;;0.93;0.93;;;;;;;21.02;71.61;94892.72;4357525;32;20193;-62
2023/07/21 05:12:56;;;;;;;3.17;0.90;;;;;;;20.72;72.51;94892.81;4362274;32;20283;-62
2023/07/21 05:15:22;;;;;;;0.70;0.70;;;;;;;20.77;72.87;94887.09;4347559;32;20185;-62
2023/07/21 05:17:47;;;;;;;0.80;0.80;;;;;;;20.67;73.31;94887.72;4346326;32;20231;-61
2023/07/21 05:20:12;;;;;;;2.00;1.17;;;;;;;20.66;73.26;94891.56;4358034;32;20193;-62
2023/07/21 05:22:38;;;;;;;0.83;0.83;;;;;;;20.68;73.51;94897.38;4351021;32;20196;-62
2023/07/21 05:25:08;;;;;;;1.30;0.93;;;;;;;20.83;72.98;94907.16;4344234;32;20236;-62
2023/07/21 05:27:34;;;;;;;0.77;0.77;;;;;;;20.92;72.63;94916.53;4356662;32;20209;-61
2023/07/21 05:29:59;;;;;;;0.80;0.80;;;;;;;20.92;72.38;94918.47;4346552;32;20235;-62
2023/07/21 05:32:25;;;;;;;0.83;0.83;;;;;;;21.01;71.94;94915.44;4344078;32;20717;-62
2023/07/21 05:34:50;;;;;;;1.47;0.90;;;;;;;21.12;71.28;94922.53;4359795;32;20192;-62
2023/07/21 05:37:16;;;;;;;2.20;1.43;;;;;;;21.00;71.99;94911.97;4359250;32;20232;-62
2023/07/21 05:39:41;;;;;;;1.63;1.53;;;;;;;20.98;72.03;94908.91;4359467;32;20287;-62
2023/07/21 05:42:07;;;;;;;0.90;0.90;;;;;;;20.90;72.53;94909.94;4357654;32;20231;-62
2023/07/21 05:44:33;;;;;;;0.77;0.77;;;;;;;20.85;72.85;94899.50;4357771;32;20189;-62
2023/07/21 05:46:59;;;;;;;0.60;0.60;;;;;;;20.54;74.06;94879.91;4339408;32;20241;-62
2023/07/21 05:49:25;;;;;;;1.40;1.30;;;;;;;20.64;74.03;94866.91;4349658;32;20208;-62
2023/07/21 05:51:51;;;;;;;1.30;1.20;;;;;;;20.62;74.83;94861.09;4329860;33;20205;-62
2023/07/21 05:54:16;;;;;;;1.77;1.37;;;;;;;20.71;74.61;94864.28;4345272;32;20224;-63
2023/07/21 05:56:42;;;;;;;0.80;0.80;;;;;;;20.80;74.57;94862.06;4336041;32;20253;-63
2023/07/21 05:59:07;;;;;;;0.93;0.93;;;;;;;20.80;74.81;94875.53;4324267;32;20200;-62
2023/07/21 06:01:37;;;;;;;0.60;0.60;;;;;;;20.79;75.61;94869.38;4354854;32;20240;-62
2023/07/21 06:04:04;;;;;;;1.13;1.13;;;;;;;20.69;75.72;94856.56;4358347;32;20215;-61
2023/07/21 06:06:29;;;;;;;0.93;0.93;;;;;;;20.84;75.70;94849.41;4346542;32;20185;-62
2023/07/21 06:08:55;;;;;;;1.00;1.00;;;;;;;21.01;74.75;94848.78;4347889;32;20216;-62
2023/07/21 06:11:20;;;;;;;1.50;1.50;;;;;;;21.01;75.21;94853.41;4356827;32;20231;-62
2023/07/21 06:13:46;;;;;;;0.90;0.90;;;;;;;21.10;74.24;94851.19;4354600;32;20296;-62
2023/07/21 06:16:11;;;;;;;0.90;0.90;;;;;;;21.10;73.48;94862.75;4344080;32;20194;-62
2023/07/21 06:18:36;;;;;;;0.83;0.83;;;;;;;21.23;73.21;94866.75;4346576;32;20188;-62
2023/07/21 06:21:04;;;;;;;3.77;1.40;;;;;;;21.24;73.31;94868.31;4346620;32;20287;-62
2023/07/21 06:23:30;;;;;;;15.40;2.50;;;;;;;21.40;72.93;94864.59;4344204;32;20193;-62
2023/07/21 06:25:55;;;;;;;7.23;2.70;;;;;;;21.46;72.34;94855.75;4362164;32;20228;-61
2023/07/21 06:28:21;;;;;;;2.70;2.47;;;;;;;21.53;71.66;94857.75;4352130;32;20204;-62
2023/07/21 06:30:47;;;;;;;4.20;1.80;;;;;;;21.71;71.08;94855.19;4352955;32;20201;-62
2023/07/21 06:33:12;;;;;;;1.03;1.03;;;;;;;21.71;71.49;94858.66;4356833;32;20223;-62
2023/07/21 06:35:37;;;;;;;1.40;1.03;;;;;;;21.41;72.89;94852.62;4361108;32;20247;-61
2023/07/21 06:38:03;;;;;;;10.40;2.97;;;;;;;21.60;72.00;94860.50;4345152;32;20184;-61
2023/07/21 06:40:30;;;;;;;2.23;2.13;;;;;;;21.57;71.75;94853.94;4348094;32;20235;-61
2023/07/21 06:42:56;;;;;;;2.87;2.67;;;;;;;21.81;70.81;94857.19;4345568;32;20240;-61
2023/07/21 06:45:21;;;;;;;5.60;2.37;;;;;;;22.13;69.24;94852.75;4363392;32;20269;-61
2023/07/21 06:47:46;;;;;;;1.37;1.27;;;;;;;22.19;69.12;94864.78;4354223;32;20294;-61
2023/07/21 06:50:12;;;;;;;2.20;2.07;;;;;;;22.13;69.55;94862.78;4347671;32;20243;-63
2023/07/21 06:52:37;;;;;;;0.87;0.67;;;;;;;21.98;70.07;94861.16;4358639;32;20303;-62
2023/07/21 06:55:03;;;;;;;1.73;1.40;;;;;;;21.64;72.04;94853.19;4356996;32;20193;-61
2023/07/21 06:57:29;;;;;;;1.00;1.00;;;;;;;21.62;72.14;94850.88;4357699;32;20318;-62
2023/07/21 06:59:54;;;;;;;6.30;0.93;;;;;;;21.38;73.99;94850.69;4362020;32;20312;-62
2023/07/21 07:02:20;;;;;;;4.97;1.70;;;;;;;21.73;71.46;94859.06;4345122;32;20193;-61
2023/07/21 07:04:47;;;;;;;1.23;1.13;;;;;;;21.93;71.01;94857.63;4361653;32;20295;-61
2023/07/21 07:07:13;;;;;;;6.90;1.40;;;;;;;21.77;72.06;94856.37;4343290;32;20231;-61
2023/07/21 07:09:38;;;;;;;0.80;0.80;;;;;;;21.82;71.82;94864.13;4358472;32;20201;-61
2023/07/21 07:12:06;;;;;;;1.00;1.00;;;;;;;21.86;72.03;94854.88;4360560;32;20201;-61
2023/07/21 07:14:31;;;;;;;0.83;0.83;;;;;;;22.00;71.66;94853.44;4361325;32;20209;-61
2023/07/21 07:16:56;;;;;;;1.20;1.20;;;;;;;22.21;70.66;94850.88;4361182;32;20188;-61
2023/07/21 07:19:22;;;;;;;0.67;0.60;;;;;;;22.00;71.88;94858.84;4356687;32;20248;-62
2023/07/21 07:21:47;;;;;;;0.77;0.77;;;;;;;22.05;71.47;94861.19;4352599;32;20193;-61
2023/07/21 07:24:13;;;;;;;0.80;0.80;;;;;;;22.06;71.34;94858.13;4361816;32;20263;-61
2023/07/21 07:26:38;;;;;;;2.63;1.37;;;;;;;22.28;70.41;94859.00;4348301;32;20211;-61
2023/07/21 07:29:06;;;;;;;1.20;1.20;;;;;;;22.42;69.83;94859.09;4361436;32;20269;-61
2023/07/21 07:31:31;;;;;;;0.70;0.70;;;;;;;22.51;69.33;94845.97;4355041;32;20253;-61
2023/07/21 07:33:57;;;;;;;0.83;0.83;;;;;;;22.48;69.51;94852.12;4361176;32;20238;-61
2023/07/21 07:36:23;;;;;;;5.40;1.17;;;;;;;22.45;69.38;94852.88;4349975;32;20188;-60
2023/07/21 07:38:48;;;;;;;0.70;0.70;;;;;;;22.16;70.84;94862.03;4352342;32;20241;-61
2023/07/21 07:41:14;;;;;;;0.77;0.77;;;;;;;22.44;69.74;94864.87;4361877;32;20193;-62
2023/07/21 07:43:39;;;;;;;0.90;0.90;;;;;;;22.53;69.30;94873.41;4347046;32;20205;-60
2023/07/21 07:46:08;;;;;;;0.53;0.53;;;;;;;22.51;69.32;94878.41;4361406;32;20189;-61
2023/07/21 07:48:37;;;;;;;0.90;0.90;;;;;;;22.51;68.99;94886.53;4360604;32;20213;-62
2023/07/21 07:51:04;;;;;;;0.77;0.77;;;;;;;22.27;70.38;94882.56;4362050;32;20185;-61
2023/07/21 07:53:31;;;;;;;1.07;1.07;;;;;;;22.55;69.05;94890.03;4354097;32;20193;-62
2023/07/21 07:55:57;;;;;;;1.17;1.17;;;;;;;22.75;68.20;94878.87;4361338;32;20227;-62
2023/07/21 07:58:22;;;;;;;1.17;1.17;;;;;;;22.83;67.87;94875.88;4346911;32;20216;-61
2023/07/21 08:00:48;;;;;;;1.20;1.20;;;;;;;22.76;68.29;94891.25;4359769;32;20200;-62
2023/07/21 08:03:14;;;;;;;1.13;1.03;;;;;;;22.95;67.15;94885.53;4352174;32;20252;-62
2023/07/21 08:05:40;;;;;;;0.53;0.53;;;;;;;22.95;67.06;94896.38;4351274;32;20205;-61
2023/07/21 08:08:09;;;;;;;0.83;0.83;;;;;;;23.07;66.50;94901.41;4345868;32;20194;-61
2023/07/21 08:10:35;;;;;;;0.93;0.93;;;;;;;22.93;67.12;94906.81;4354746;32;20252;-61
2023/07/21 08:13:04;;;;;;;1.53;1.43;;;;;;;22.88;67.29;94904.47;4360281;32;20205;-61
2023/07/21 08:15:29;;;;;;;0.90;0.83;;;;;;;22.93;67.15;94902.16;4360237;32;20193;-61
2023/07/21 08:17:55;;;;;;;0.87;0.87;;;;;;;22.84;67.40;94896.34;4355089;32;20244;-62
2023/07/21 08:20:21;;;;;;;0.43;0.43;;;;;;;22.79;67.71;94898.66;4360996;32;20215;-61
2023/07/21 08:22:47;;;;;;;2.27;1.17;;;;;;;22.97;67.06;94904.88;4346834;32;20227;-62
2023/07/21 08:25:13;;;;;;;0.83;0.83;;;;;;;22.89;67.18;94908.72;4346960;32;20215;-61
2023/07/21 08:27:38;;;;;;;1.07;1.00;;;;;;;23.03;66.37;94913.41;4360911;32;20287;-61
2023/07/21 08:30:04;;;;;;;0.97;0.97;;;;;;;22.90;67.18;94919.16;4342409;32;20205;-61
2023/07/21 08:32:30;;;;;;;0.60;0.60;;;;;;;22.69;68.43;94920.97;4340521;32;20393;-61
2023/07/21 08:34:56;;;;;;;3.50;1.33;;;;;;;22.76;67.74;94921.78;4346905;32;20247;-62
2023/07/21 08:37:22;;;;;;;1.30;1.20;;;;;;;22.65;68.54;94941.84;4361886;32;20189;-61
2023/07/21 08:39:47;;;;;;;0.87;0.87;;;;;;;22.59;68.47;94950.31;4346855;32;20220;-61
2023/07/21 08:42:13;;;;;;;1.07;1.07;;;;;;;22.72;67.91;94952.69;4358986;32;20197;-61
2023/07/21 08:48:06;;;;;;;0.80;0.80;;;;;;;22.16;68.00;94970.13;4355256;32;20212;-61
2023/07/21 08:50:33;;;;;;;0.70;0.70;;;;;;;22.34;68.18;94978.34;4354762;32;20193;-61
2023/07/21 08:52:59;;;;;;;0.83;0.83;;;;;;;22.32;67.68;94984.13;4342737;32;20220;-61
2023/07/21 08:55:25;;;;;;;1.43;1.33;;;;;;;22.21;67.35;94980.59;4348773;32;20189;-61
2023/07/21 08:57:57;;;;;;;0.53;0.53;;;;;;;22.18;66.48;94994.88;4347302;32;20224;-61
2023/07/21 09:00:24;;;;;;;1.00;1.00;;;;;;;22.47;66.53;94979.59;4344404;32;20189;-61
2023/07/21 09:03:00;;;;;;;1.03;0.80;;;;;;;22.46;66.08;94980.75;4346391;32;20197;-62
2023/07/21 09:05:26;;;;;;;1.13;1.10;;;;;;;22.50;65.62;94985.03;4358368;32;20262;-62
2023/07/21 09:07:51;;;;;;;0.57;0.57;;;;;;;22.55;66.05;94976.56;4359141;32;20240;-62
2023/07/21 09:10:35;;;;;;;0.63;0.63;;;;;;;22.45;66.73;94971.84;4353449;32;20274;-62
2023/07/21 09:13:01;;;;;;;0.90;0.90;;;;;;;22.44;67.11;94964.16;4344818;32;20208;-62
2023/07/21 09:15:26;;;;;;;2.30;1.23;;;;;;;22.48;67.30;94976.50;4360751;32;20246;-63
2023/07/21 09:17:52;;;;;;;1.00;1.00;;;;;;;22.42;67.65;94978.03;4360307;32;20259;-63
2023/07/21 09:20:20;;;;;;;1.10;1.10;;;;;;;22.53;67.46;94970.75;4347495;32;20209;-62
2023/07/21 09:22:50;;;;;;;0.50;0.50;;;;;;;22.61;66.93;94958.81;4360866;32;20276;-62
2023/07/21 09:25:23;;;;;;;2.03;1.07;;;;;;;22.48;67.65;94973.81;4360443;32;20185;-62
2023/07/21 09:27:53;;;;;;;0.33;0.33;;;;;;;22.57;67.30;94966.12;4344828;32;20210;-62
2023/07/21 09:30:19;;;;;;;0.50;0.50;;;;;;;22.36;68.40;94963.31;4357939;32;20189;-63
2023/07/21 09:32:44;;;;;;;0.30;0.30;;;;;;;22.54;67.60;94953.38;4349649;32;20241;-62
2023/07/21 09:35:10;;;;;;;0.13;0.13;;;;;;;22.70;67.10;94946.88;4360482;32;20197;-63
2023/07/21 09:37:38;;;;;;;0.63;0.63;;;;;;;22.82;66.53;94946.59;4360976;32;20284;-62
2023/07/21 09:40:06;;;;;;;0.87;0.70;;;;;;;22.75;66.75;94933.75;4360524;32;20272;-62
2023/07/21 09:42:34;;;;;;;0.57;0.57;;;;;;;23.03;65.33;94938.53;4346762;32;20258;-62
2023/07/21 09:45:00;;;;;;;0.40;0.40;;;;;;;22.93;64.89;94939.25;4345049;32;20197;-62
2023/07/21 09:47:26;;;;;;;0.53;0.37;;;;;;;22.80;65.63;94932.66;4353695;32;20256;-63
2023/07/21 09:49:54;;;;;;;0.60;0.60;;;;;;;22.68;66.01;94935.66;4347372;32;20193;-62
2023/07/21 09:52:21;;;;;;;0.43;0.43;;;;;;;22.57;66.81;94933.69;4346729;32;20256;-63
2023/07/21 09:55:13;;;;;;;0.30;0.30;;;;;;;22.44;66.65;94940.59;4359912;32;20189;-62
2023/07/21 09:57:42;;;;;;;1.43;1.33;;;;;;;22.65;65.92;94936.44;4350701;32;20193;-62
2023/07/21 10:00:13;;;;;;;1.03;1.03;;;;;;;22.65;66.53;94933.72;4361149;32;20251;-62
2023/07/21 10:02:43;;;;;;;0.80;0.80;;;;;;;22.89;64.87;94933.84;4347260;32;20221;-62
2023/07/21 10:05:10;;;;;;;0.60;0.57;;;;;;;22.92;64.89;94929.59;4362811;32;20300;-62
2023/07/21 10:07:37;;;;;;;1.20;0.60;;;;;;;22.93;64.80;94936.56;4350034;32;20216;-63
2023/07/21 10:10:05;;;;;;;0.20;0.20;;;;;;;23.02;64.92;94936.22;4362959;32;20212;-63
2023/07/21 10:12:46;;;;;;;0.57;0.57;;;;;;;22.99;64.68;94937.75;4361869;32;20189;-62
2023/07/21 10:15:20;;;;;;;0.70;0.70;;;;;;;23.12;64.61;94941.66;4362631;32;20234;-63
2023/07/21 10:18:00;;;;;;;0.47;0.47;;;;;;;23.15;64.18;94942.81;4350152;32;23587;-62
2023/07/21 10:20:49;;;;;;;0.27;0.27;;;;;;;23.16;64.47;94944.38;4343929;32;20237;-62
2023/07/21 10:23:17;;;;;;;0.53;0.50;;;;;;;23.19;63.93;94947.09;4352410;32;20219;-63
2023/07/21 10:25:48;;;;;;;0.60;0.60;;;;;;;23.23;64.16;94953.28;4352609;32;20193;-62
2023/07/21 10:28:14;;;;;;;0.50;0.50;;;;;;;23.40;63.68;94959.12;4340279;32;20192;-62
2023/07/21 10:30:39;;;;;;;0.47;0.47;;;;;;;23.40;63.46;94953.69;4350146;32;20207;-63
2023/07/21 10:33:13;;;;;;;0.30;0.30;;;;;;;23.41;63.08;94955.25;4362313;32;20216;-62
2023/07/21 10:35:39;;;;;;;0.47;0.47;;;;;;;23.42;63.16;94951.38;4344000;32;20220;-62
2023/07/21 10:38:13;;;;;;;0.40;0.40;;;;;;;23.35;63.39;94956.78;4346051;32;20240;-62
2023/07/21 10:40:42;;;;;;;1.10;0.73;;;;;;;23.38;63.45;94945.19;4356523;32;20263;-62
2023/07/21 10:43:08;;;;;;;0.30;0.30;;;;;;;23.30;63.50;94944.38;4362547;32;20212;-62
2023/07/21 10:45:34;;;;;;;0.87;0.87;;;;;;;23.36;63.35;94936.66;4362478;32;20260;-62
2023/07/21 10:48:16;;;;;;;0.40;0.40;;;;;;;23.31;63.87;94944.00;4362943;32;20189;-62
2023/07/21 10:50:54;;;;;;;0.87;0.87;;;;;;;23.30;64.13;94934.34;4350353;32;20189;-62
2023/07/21 10:53:23;;;;;;;0.50;0.50;;;;;;;23.33;63.77;94937.44;4357138;32;20176;-63
2023/07/21 10:55:53;;;;;;;0.40;0.40;;;;;;;23.18;63.79;94932.00;4337798;32;20231;-63
2023/07/21 10:58:19;;;;;;;1.03;0.50;;;;;;;23.15;63.84;94919.22;4354367;32;20173;-63
2023/07/21 11:00:49;;;;;;;0.60;0.60;;;;;;;23.20;64.29;94913.44;4342507;32;20243;-62
2023/07/21 11:03:14;;;;;;;0.30;0.30;;;;;;;23.29;64.26;94916.53;4346973;32;20201;-60
2023/07/21 11:05:40;;;;;;;0.40;0.40;;;;;;;23.38;63.63;94910.00;4348662;32;20292;-62
2023/07/21 11:08:10;;;;;;;0.37;0.37;;;;;;;23.37;63.69;94916.56;4339251;32;20194;-62
2023/07/21 11:10:35;;;;;;;0.50;0.50;;;;;;;23.45;63.13;94897.25;4352161;32;20228;-61
2023/07/21 11:13:01;;;;;;;0.50;0.50;;;;;;;23.47;63.02;94899.56;4355943;32;20186;-62
2023/07/21 11:15:27;;;;;;;0.87;0.87;;;;;;;23.15;64.58;94896.81;4340574;32;20256;-62
2023/07/21 11:18:00;;;;;;;0.80;0.80;;;;;;;23.26;64.03;94901.09;4344291;32;20193;-62
2023/07/21 11:20:26;;;;;;;0.87;0.87;;;;;;;23.06;65.39;94910.72;4351580;32;20197;-62
2023/07/21 11:22:51;;;;;;;0.77;0.77;;;;;;;23.12;63.96;94903.75;4364432;32;20223;-62
2023/07/21 11:25:16;;;;;;;0.47;0.40;;;;;;;23.07;65.13;94900.66;4360730;32;20192;-62
2023/07/21 11:27:46;;;;;;;0.50;0.50;;;;;;;23.26;64.88;94894.91;4346060;32;20216;-62
2023/07/21 11:30:19;;;;;;;1.30;1.20;;;;;;;23.19;64.56;94895.66;4346299;32;20186;-62
2023/07/21 11:32:45;;;;;;;0.30;0.30;;;;;;;23.33;64.62;94888.69;4347949;32;20213;-62
2023/07/21 11:35:10;;;;;;;0.53;0.37;;;;;;;23.37;64.82;94887.56;4353757;32;20201;-62
2023/07/21 11:37:42;;;;;;;0.80;0.80;;;;;;;23.27;65.55;94886.41;4354287;32;20189;-62